This is the latest recevied weather packets stored in our database for station/object E23JWE-1. If no packets are shown the sender has not sent any weather packets the latest 10 day(s).
| Time | Temp. | Humidity | Pressure | Rain* | Wind** | Luminosity | Snow |
|---|---|---|---|---|---|---|---|
| 1777566514 | 32.78° C | 92% | 1011 hPa | - | - | 0 W/m² | - |
| 1777564688 | 32.22° C | 90% | 1011 hPa | - | - | 0 W/m² | - |
| 1777562863 | 32.22° C | 95% | 1011 hPa | - | - | 0 W/m² | - |
| 1777561036 | 33.33° C | 89% | 1011 hPa | - | - | 0 W/m² | - |
| 1777559211 | 33.33° C | 89% | 1010 hPa | - | - | 0 W/m² | - |
| 1777557385 | 33.33° C | 89% | 1009 hPa | - | - | 0 W/m² | - |
| 1777555560 | 33.33° C | 85% | 1009 hPa | - | - | 0 W/m² | - |
| 1777553734 | 32.22° C | 92% | 1008 hPa | - | - | 0 W/m² | - |
| 1777551909 | 32.22° C | 90% | 1008 hPa | - | - | 0 W/m² | - |
| 1777550083 | 32.22° C | 88% | 1007 hPa | - | - | 0 W/m² | - |
| 1777548256 | 32.78° C | 83% | 1007 hPa | - | - | 3 W/m² | - |
| 1777546428 | 32.78° C | 81% | 1006 hPa | - | - | 12 W/m² | - |
| 1777544602 | 32.78° C | 81% | 1006 hPa | - | - | 19 W/m² | - |
| 1777542777 | 34.44° C | 68% | 1006 hPa | - | - | 28 W/m² | - |
| 1777540950 | 35.56° C | 66% | 1006 hPa | - | - | 37 W/m² | - |
| 1777539124 | 35.56° C | 62% | 1007 hPa | - | - | 51 W/m² | - |
| 1777537298 | 35.56° C | 60% | 1007 hPa | - | - | 58 W/m² | - |
| 1777535472 | 34.44° C | 64% | 1007 hPa | - | - | 48 W/m² | - |
| 1777533646 | 35° C | 69% | 1008 hPa | - | - | 49 W/m² | - |
| 1777532428 | 34.44° C | 72% | 1008 hPa | - | - | 46 W/m² | - |
| 1777530599 | 34.44° C | 76% | 1008 hPa | - | - | 43 W/m² | - |
| 1777528773 | 33.89° C | 76% | 1009 hPa | - | - | 34 W/m² | - |
| 1777526947 | 33.89° C | 81% | 1009 hPa | - | - | 30 W/m² | - |
| 1777525120 | 33.89° C | 81% | 1010 hPa | - | - | 25 W/m² | - |
| 1777523294 | 33.33° C | 81% | 1010 hPa | - | - | 23 W/m² | - |
* Rain since midnight (hover to see other rain measurements)
** Current wind speed in m/s (hover to see current wind gust speed)